createdAt,value
2018-03-26T00:00:43.477Z,0.00
2018-03-26T00:01:43.428Z,0.00
2018-03-26T00:02:43.381Z,0.00
2018-03-26T00:03:43.331Z,0.00
2018-03-26T00:04:43.284Z,0.00
2018-03-26T00:05:43.236Z,0.00
2018-03-26T00:06:43.189Z,0.00
2018-03-26T00:07:43.140Z,0.00
2018-03-26T00:08:43.092Z,0.00
2018-03-26T00:09:43.044Z,0.00
2018-03-26T00:10:43.002Z,0.00
2018-03-26T00:11:42.948Z,0.00
2018-03-26T00:12:42.900Z,0.00
2018-03-26T00:13:42.852Z,0.00
2018-03-26T00:14:42.804Z,0.00
2018-03-26T00:15:42.754Z,0.00
2018-03-26T00:16:42.709Z,0.00
2018-03-26T00:17:42.660Z,0.00
2018-03-26T00:18:42.612Z,0.00
2018-03-26T00:19:42.563Z,0.00
2018-03-26T00:20:42.515Z,0.00
2018-03-26T00:21:42.467Z,0.00
2018-03-26T00:22:42.419Z,0.00
2018-03-26T00:23:42.376Z,0.00
2018-03-26T00:24:42.323Z,0.00
2018-03-26T00:25:42.274Z,0.00
2018-03-26T00:26:42.229Z,0.00
2018-03-26T00:27:42.178Z,0.00
2018-03-26T00:28:42.130Z,0.00
2018-03-26T00:29:42.081Z,0.00
2018-03-26T00:30:42.038Z,0.00
2018-03-26T00:31:41.986Z,0.00
2018-03-26T00:32:41.938Z,0.00
2018-03-26T00:33:41.890Z,0.00
2018-03-26T00:34:41.843Z,0.00
2018-03-26T00:35:41.794Z,0.00
2018-03-26T00:36:41.746Z,0.00
2018-03-26T00:37:41.702Z,0.00
2018-03-26T00:38:41.651Z,0.00
2018-03-26T00:39:41.601Z,0.00
2018-03-26T00:40:41.556Z,0.00
2018-03-26T00:41:41.505Z,0.00
2018-03-26T00:42:41.558Z,0.00
2018-03-26T00:43:41.409Z,0.00
2018-03-26T00:44:41.362Z,0.00
2018-03-26T00:45:41.318Z,0.00
2018-03-26T00:46:41.267Z,0.00
2018-03-26T00:47:41.216Z,0.00
2018-03-26T00:48:41.168Z,0.00
2018-03-26T00:49:41.126Z,0.00
2018-03-26T00:50:41.079Z,0.00
2018-03-26T00:51:41.024Z,0.00
2018-03-26T00:52:40.976Z,0.00
2018-03-26T00:53:40.929Z,0.00
2018-03-26T00:54:40.880Z,0.00
2018-03-26T00:55:40.888Z,0.00
2018-03-26T00:56:40.791Z,0.00
2018-03-26T00:57:40.735Z,0.00
2018-03-26T00:58:40.688Z,0.00
2018-03-26T00:59:40.650Z,0.00
2018-03-26T01:00:40.591Z,0.00
2018-03-26T01:01:40.551Z,0.00
2018-03-26T01:02:40.495Z,0.00
2018-03-26T01:03:40.456Z,0.00
2018-03-26T01:04:40.398Z,0.00
2018-03-26T01:05:40.350Z,0.00
2018-03-26T01:06:40.302Z,0.00
2018-03-26T01:07:40.253Z,0.00
2018-03-26T01:08:40.206Z,0.00
2018-03-26T01:09:40.157Z,0.00
2018-03-26T01:10:40.109Z,0.00
2018-03-26T01:11:40.066Z,0.00
2018-03-26T01:12:40.012Z,0.00
2018-03-26T01:13:39.965Z,0.00
2018-03-26T01:14:39.918Z,0.00
2018-03-26T01:15:39.867Z,0.00
2018-03-26T01:16:39.819Z,0.00
2018-03-26T01:17:39.772Z,0.00
2018-03-26T01:18:39.726Z,0.00
2018-03-26T01:19:39.674Z,0.00
2018-03-26T01:20:39.626Z,0.00
2018-03-26T01:21:39.578Z,0.00
2018-03-26T01:22:39.530Z,0.00
2018-03-26T01:23:39.480Z,0.00
2018-03-26T01:24:39.433Z,0.00
2018-03-26T01:25:39.385Z,0.00
2018-03-26T01:26:39.336Z,0.00
2018-03-26T01:27:39.288Z,0.00
2018-03-26T01:28:39.239Z,0.00
2018-03-26T01:29:39.190Z,0.00
2018-03-26T01:30:39.143Z,0.00
2018-03-26T01:31:39.096Z,0.00
2018-03-26T01:32:39.047Z,0.00
2018-03-26T01:33:38.998Z,0.00
2018-03-26T01:34:38.951Z,0.00
2018-03-26T01:35:38.900Z,0.00
2018-03-26T01:36:38.851Z,0.00
2018-03-26T01:37:38.803Z,0.00
2018-03-26T01:38:38.756Z,0.00
2018-03-26T01:39:38.706Z,0.00
2018-03-26T01:40:38.659Z,0.00
2018-03-26T01:41:38.610Z,0.00
2018-03-26T01:42:38.567Z,0.00
2018-03-26T01:43:38.514Z,0.00
2018-03-26T01:44:38.465Z,0.00
2018-03-26T01:45:38.421Z,0.00
2018-03-26T01:46:38.368Z,0.00
2018-03-26T01:47:38.319Z,0.00
2018-03-26T01:48:38.271Z,0.00
2018-03-26T01:49:38.223Z,0.00
2018-03-26T01:50:38.179Z,0.00
2018-03-26T01:51:38.126Z,0.00
2018-03-26T01:52:38.077Z,0.00
2018-03-26T01:53:38.029Z,0.00
2018-03-26T01:54:37.981Z,0.00
2018-03-26T01:55:37.932Z,0.00
2018-03-26T01:56:37.884Z,0.00
2018-03-26T01:57:37.836Z,0.00
2018-03-26T01:58:37.793Z,0.00
2018-03-26T01:59:37.738Z,0.00
2018-03-26T02:00:37.693Z,0.00
2018-03-26T02:01:37.643Z,0.00
2018-03-26T02:02:37.595Z,0.00
2018-03-26T02:03:37.545Z,0.00
2018-03-26T02:04:37.497Z,0.00
2018-03-26T02:05:37.449Z,0.00
2018-03-26T02:06:37.402Z,0.00
2018-03-26T02:07:37.352Z,0.00
2018-03-26T02:08:37.304Z,0.00
2018-03-26T02:09:37.256Z,0.00
2018-03-26T02:10:37.207Z,0.00
2018-03-26T02:11:37.158Z,0.00
2018-03-26T02:12:37.110Z,0.00
2018-03-26T02:13:37.063Z,0.00
2018-03-26T02:14:37.014Z,0.00
2018-03-26T02:15:36.965Z,0.00
2018-03-26T02:16:36.916Z,0.00
2018-03-26T02:17:36.875Z,0.00
2018-03-26T02:18:36.819Z,0.00
2018-03-26T02:19:36.772Z,0.00
2018-03-26T02:20:36.722Z,0.00
2018-03-26T02:21:36.674Z,0.00
2018-03-26T02:22:36.626Z,0.00
2018-03-26T02:23:36.577Z,0.00
2018-03-26T02:24:36.528Z,0.00
2018-03-26T02:25:36.483Z,0.00
2018-03-26T02:26:36.465Z,0.00
2018-03-26T02:27:36.382Z,0.00
2018-03-26T02:28:36.334Z,0.00
2018-03-26T02:29:36.287Z,0.00
2018-03-26T02:30:36.242Z,0.00
2018-03-26T02:31:36.189Z,0.00
2018-03-26T02:32:36.145Z,0.00
2018-03-26T02:33:36.093Z,0.00
2018-03-26T02:34:36.045Z,0.00
2018-03-26T02:35:35.995Z,0.00
2018-03-26T02:36:35.947Z,0.00
2018-03-26T02:37:35.899Z,0.00
2018-03-26T02:38:35.850Z,0.00
2018-03-26T02:39:35.801Z,0.00
2018-03-26T02:40:35.753Z,0.00
2018-03-26T02:41:35.705Z,0.00
2018-03-26T02:42:35.656Z,0.00
2018-03-26T02:43:35.606Z,0.00
2018-03-26T02:44:35.568Z,0.00
2018-03-26T02:45:35.509Z,0.00
2018-03-26T02:46:35.465Z,0.00
2018-03-26T02:47:35.412Z,0.00
2018-03-26T02:48:35.363Z,0.00
2018-03-26T02:49:35.316Z,0.00
2018-03-26T02:50:35.268Z,0.00
2018-03-26T02:51:35.223Z,0.00
2018-03-26T02:52:35.170Z,0.00
2018-03-26T02:53:35.198Z,0.00
2018-03-26T02:54:35.072Z,0.00
2018-03-26T02:55:35.024Z,0.00
2018-03-26T02:56:34.973Z,0.00
2018-03-26T02:57:34.926Z,0.00
2018-03-26T02:58:34.877Z,0.00
2018-03-26T02:59:34.828Z,0.00
2018-03-26T03:00:34.780Z,0.00
2018-03-26T03:01:34.737Z,0.00
2018-03-26T03:02:34.695Z,0.00
2018-03-26T03:03:34.643Z,0.00
2018-03-26T03:04:34.583Z,0.00
2018-03-26T03:05:34.537Z,0.00
2018-03-26T03:06:34.491Z,0.00
2018-03-26T03:07:34.438Z,0.00
2018-03-26T03:08:34.391Z,0.00
2018-03-26T03:09:34.341Z,0.00
2018-03-26T03:10:34.298Z,0.00
2018-03-26T03:11:34.250Z,0.00
2018-03-26T03:12:34.195Z,0.00
2018-03-26T03:13:34.147Z,0.00
2018-03-26T03:14:34.098Z,0.00
2018-03-26T03:15:34.048Z,0.00
2018-03-26T03:16:34.000Z,0.00
2018-03-26T03:17:33.953Z,0.00
2018-03-26T03:18:33.903Z,0.00
2018-03-26T03:19:33.861Z,0.00
2018-03-26T03:20:33.806Z,0.00
2018-03-26T03:21:33.760Z,0.00
2018-03-26T03:22:33.769Z,0.00
2018-03-26T03:23:33.660Z,0.00
2018-03-26T03:24:33.612Z,0.00
2018-03-26T03:25:33.563Z,0.00
2018-03-26T03:26:33.515Z,0.00
2018-03-26T03:27:33.466Z,0.00
2018-03-26T03:28:33.431Z,0.00
2018-03-26T03:29:33.369Z,0.00
2018-03-26T03:30:33.322Z,0.00
2018-03-26T03:31:33.273Z,0.00
2018-03-26T03:32:33.223Z,0.00
2018-03-26T03:33:33.175Z,0.00
2018-03-26T03:34:33.132Z,0.00
2018-03-26T03:35:33.077Z,0.00
2018-03-26T03:36:33.028Z,0.00
2018-03-26T03:37:32.980Z,0.00
2018-03-26T03:38:32.932Z,0.00
2018-03-26T03:39:32.883Z,0.00
2018-03-26T03:40:32.834Z,0.00
2018-03-26T03:41:32.786Z,0.00
2018-03-26T03:42:32.738Z,0.00
2018-03-26T03:43:32.688Z,0.00
2018-03-26T03:44:32.640Z,0.00
2018-03-26T03:45:32.592Z,0.00
2018-03-26T03:46:32.543Z,0.00
2018-03-26T03:47:32.494Z,0.00
2018-03-26T03:48:32.446Z,0.00
2018-03-26T03:49:32.398Z,0.00
2018-03-26T03:50:32.349Z,0.00
2018-03-26T03:51:32.300Z,0.00
2018-03-26T03:52:32.253Z,0.00
2018-03-26T03:53:32.203Z,0.00
2018-03-26T03:54:32.155Z,0.00
2018-03-26T03:55:32.106Z,0.00
2018-03-26T03:56:32.061Z,0.00
2018-03-26T03:57:32.010Z,0.00
2018-03-26T03:58:31.962Z,0.00
2018-03-26T03:59:31.911Z,0.00
2018-03-26T04:00:31.863Z,0.00
2018-03-26T04:01:31.816Z,0.00
2018-03-26T04:02:31.767Z,0.00
2018-03-26T04:03:31.717Z,0.00
2018-03-26T04:04:31.669Z,0.00
2018-03-26T04:05:31.621Z,0.00
2018-03-26T04:06:31.576Z,0.00
2018-03-26T04:07:31.529Z,0.00
2018-03-26T04:08:31.474Z,0.00
2018-03-26T04:09:31.426Z,0.00
2018-03-26T04:10:31.378Z,0.00
2018-03-26T04:11:31.328Z,0.00
2018-03-26T04:12:31.280Z,0.00
2018-03-26T04:13:31.232Z,0.00
2018-03-26T04:14:31.184Z,0.00
2018-03-26T04:15:31.134Z,0.00
2018-03-26T04:16:31.086Z,0.00
2018-03-26T04:17:31.037Z,0.00
2018-03-26T04:18:30.989Z,0.00
2018-03-26T04:19:30.939Z,0.00
2018-03-26T04:20:30.942Z,0.00
2018-03-26T04:21:30.843Z,0.00
2018-03-26T04:22:30.800Z,0.00
2018-03-26T04:23:30.745Z,0.00
2018-03-26T04:24:30.697Z,0.00
2018-03-26T04:25:30.648Z,0.00
2018-03-26T04:26:30.600Z,0.00
2018-03-26T04:27:30.551Z,0.00
2018-03-26T04:28:30.503Z,0.00
2018-03-26T04:29:30.454Z,0.00
2018-03-26T04:30:30.408Z,0.00
2018-03-26T04:31:30.356Z,0.00
2018-03-26T04:32:30.308Z,0.00
2018-03-26T04:33:30.260Z,0.00
2018-03-26T04:34:30.212Z,0.00
2018-03-26T04:35:30.163Z,0.00
2018-03-26T04:36:30.114Z,0.00
2018-03-26T04:37:30.066Z,0.00
2018-03-26T04:38:30.018Z,0.00
2018-03-26T04:39:29.968Z,0.00
2018-03-26T04:40:29.921Z,0.00
2018-03-26T04:41:29.871Z,0.00
2018-03-26T04:42:29.823Z,0.00
2018-03-26T04:43:29.774Z,0.00
2018-03-26T04:44:29.726Z,0.00
2018-03-26T04:45:29.678Z,0.00
2018-03-26T04:46:29.629Z,0.00
2018-03-26T04:47:29.580Z,0.00
2018-03-26T04:48:29.534Z,0.00
2018-03-26T04:49:29.533Z,0.00
2018-03-26T04:50:29.435Z,0.00
2018-03-26T04:51:29.385Z,0.00
2018-03-26T04:52:29.340Z,0.00
2018-03-26T04:53:29.289Z,0.00
2018-03-26T04:54:29.240Z,0.00
2018-03-26T04:55:29.190Z,0.00
2018-03-26T04:56:29.143Z,0.00
2018-03-26T04:57:29.094Z,0.00
2018-03-26T04:58:29.048Z,0.00
2018-03-26T04:59:28.995Z,0.00
2018-03-26T05:00:28.953Z,0.00
2018-03-26T05:01:28.899Z,0.00
2018-03-26T05:02:28.850Z,0.00
2018-03-26T05:03:28.800Z,0.00
2018-03-26T05:04:28.753Z,0.00
2018-03-26T05:05:28.707Z,0.00
2018-03-26T05:06:28.656Z,5.63
2018-03-26T05:07:28.606Z,5.63
2018-03-26T05:08:28.557Z,5.63
2018-03-26T05:09:28.509Z,5.63
2018-03-26T05:10:28.459Z,5.63
2018-03-26T05:11:28.410Z,5.63
2018-03-26T05:12:28.362Z,5.63
2018-03-26T05:13:28.363Z,5.63
2018-03-26T05:14:28.265Z,5.63
2018-03-26T05:15:28.265Z,5.63
2018-03-26T05:16:28.167Z,5.63
2018-03-26T05:17:28.121Z,5.63
2018-03-26T05:18:28.069Z,5.63
2018-03-26T05:19:28.020Z,11.25
2018-03-26T05:20:27.972Z,11.25
2018-03-26T05:21:27.924Z,11.25
2018-03-26T05:22:27.875Z,11.25
2018-03-26T05:23:27.829Z,11.25
2018-03-26T05:24:27.777Z,11.25
2018-03-26T05:25:27.729Z,11.25
2018-03-26T05:26:27.680Z,11.25
2018-03-26T05:27:27.631Z,11.25
2018-03-26T05:28:27.583Z,11.25
2018-03-26T05:29:27.534Z,16.88
2018-03-26T05:30:27.487Z,16.88
2018-03-26T05:31:27.440Z,16.88
2018-03-26T05:32:27.389Z,16.88
2018-03-26T05:33:27.340Z,16.88
2018-03-26T05:34:27.291Z,16.88
2018-03-26T05:35:27.246Z,16.88
2018-03-26T05:36:27.193Z,16.88
2018-03-26T05:37:27.145Z,16.88
2018-03-26T05:38:27.097Z,16.88
2018-03-26T05:39:27.054Z,16.88
2018-03-26T05:40:27.021Z,16.88
2018-03-26T05:41:26.949Z,22.50
2018-03-26T05:42:26.904Z,22.50
2018-03-26T05:43:26.852Z,22.50
2018-03-26T05:44:26.803Z,22.50
2018-03-26T05:45:26.759Z,22.50
2018-03-26T05:46:26.706Z,22.50
2018-03-26T05:47:26.662Z,22.50
2018-03-26T05:48:26.607Z,22.50
2018-03-26T05:49:26.558Z,22.50
2018-03-26T05:50:26.510Z,22.50
2018-03-26T05:51:26.460Z,22.50
2018-03-26T05:52:26.416Z,28.13
2018-03-26T05:53:26.364Z,28.13
2018-03-26T05:54:26.314Z,28.13
2018-03-26T05:55:26.268Z,28.13
2018-03-26T05:56:26.216Z,28.13
2018-03-26T05:57:26.167Z,28.13
2018-03-26T05:58:26.119Z,28.13
2018-03-26T05:59:26.068Z,28.13
2018-03-26T06:00:26.024Z,28.13
2018-03-26T06:01:26.022Z,28.13
2018-03-26T06:02:25.927Z,28.13
2018-03-26T06:03:25.873Z,33.75
2018-03-26T06:04:25.824Z,33.75
2018-03-26T06:05:25.775Z,33.75
2018-03-26T06:06:25.728Z,33.75
2018-03-26T06:07:25.677Z,33.75
2018-03-26T06:08:25.628Z,33.75
2018-03-26T06:09:25.610Z,33.75
2018-03-26T06:10:25.530Z,33.75
2018-03-26T06:11:25.484Z,33.75
2018-03-26T06:12:25.434Z,33.75
2018-03-26T06:13:25.383Z,39.38
2018-03-26T06:14:25.335Z,39.38
2018-03-26T06:15:25.292Z,39.38
2018-03-26T06:16:25.237Z,39.38
2018-03-26T06:17:25.188Z,39.38
2018-03-26T06:18:25.139Z,39.38
2018-03-26T06:19:25.090Z,39.38
2018-03-26T06:20:25.041Z,39.38
2018-03-26T06:21:24.992Z,39.38
2018-03-26T06:22:24.944Z,39.38
2018-03-26T06:23:24.894Z,45.00
2018-03-26T06:24:24.845Z,45.00
2018-03-26T06:25:24.796Z,45.00
2018-03-26T06:26:24.751Z,45.00
2018-03-26T06:27:24.698Z,45.00
2018-03-26T06:28:24.658Z,45.00
2018-03-26T06:29:24.601Z,45.00
2018-03-26T06:30:24.553Z,45.00
2018-03-26T06:31:24.503Z,50.63
2018-03-26T06:32:24.455Z,50.63
2018-03-26T06:33:24.406Z,50.63
2018-03-26T06:34:24.357Z,50.63
2018-03-26T06:35:24.308Z,50.63
2018-03-26T06:36:24.260Z,50.63
2018-03-26T06:37:24.211Z,50.63
2018-03-26T06:38:24.163Z,50.63
2018-03-26T06:39:24.113Z,50.63
2018-03-26T06:40:24.065Z,50.63
2018-03-26T06:41:24.016Z,50.63
2018-03-26T06:42:23.968Z,56.25
2018-03-26T06:43:23.918Z,56.25
2018-03-26T06:44:23.870Z,56.25
2018-03-26T06:45:23.821Z,56.25
2018-03-26T06:46:23.773Z,56.25
2018-03-26T06:47:23.769Z,56.25
2018-03-26T06:48:23.675Z,61.88
2018-03-26T06:49:23.626Z,61.88
2018-03-26T06:50:23.577Z,61.88
2018-03-26T06:51:23.528Z,67.50
2018-03-26T06:52:23.479Z,67.50
2018-03-26T06:53:23.430Z,67.50
2018-03-26T06:54:23.383Z,67.50
2018-03-26T06:55:23.333Z,67.50
2018-03-26T06:56:23.285Z,67.50
2018-03-26T06:57:23.237Z,67.50
2018-03-26T06:58:23.188Z,73.13
2018-03-26T06:59:23.140Z,73.13
2018-03-26T07:00:23.090Z,73.13
2018-03-26T07:01:23.042Z,73.13
2018-03-26T07:02:23.009Z,78.75
2018-03-26T07:03:22.944Z,78.75
2018-03-26T07:04:22.905Z,84.38
2018-03-26T07:05:22.847Z,90.00
2018-03-26T07:06:22.799Z,95.63
2018-03-26T07:07:22.749Z,95.63
2018-03-26T07:08:22.701Z,95.63
2018-03-26T07:09:22.653Z,95.63
2018-03-26T07:10:22.606Z,101.25
2018-03-26T07:11:22.556Z,101.25
2018-03-26T07:12:22.572Z,106.88
2018-03-26T07:13:22.458Z,112.50
2018-03-26T07:14:22.411Z,123.75
2018-03-26T07:15:22.364Z,118.13
2018-03-26T07:16:22.319Z,123.75
2018-03-26T07:17:22.266Z,129.38
2018-03-26T07:18:22.217Z,135.00
2018-03-26T07:19:22.168Z,135.00
2018-03-26T07:20:22.120Z,129.38
2018-03-26T07:21:22.072Z,129.38
2018-03-26T07:22:22.024Z,129.38
2018-03-26T07:23:21.975Z,129.38
2018-03-26T07:24:21.928Z,129.38
2018-03-26T07:25:21.879Z,135.00
2018-03-26T07:26:21.832Z,140.63
2018-03-26T07:27:21.783Z,146.25
2018-03-26T07:28:21.735Z,146.25
2018-03-26T07:29:21.687Z,146.25
2018-03-26T07:30:21.640Z,146.25
2018-03-26T07:31:21.591Z,146.25
2018-03-26T07:32:21.544Z,151.88
2018-03-26T07:33:21.498Z,151.88
2018-03-26T07:34:21.448Z,151.88
2018-03-26T07:35:21.399Z,151.88
2018-03-26T07:36:21.357Z,157.50
2018-03-26T07:37:21.304Z,157.50
2018-03-26T07:38:21.257Z,163.13
2018-03-26T07:39:21.208Z,168.75
2018-03-26T07:40:21.160Z,168.75
2018-03-26T07:41:21.124Z,168.75
2018-03-26T07:42:21.075Z,174.38
2018-03-26T07:43:21.018Z,163.13
2018-03-26T07:44:20.969Z,163.13
2018-03-26T07:45:20.922Z,163.13
2018-03-26T07:46:20.880Z,163.13
2018-03-26T07:47:20.825Z,163.13
2018-03-26T07:48:20.778Z,163.13
2018-03-26T07:49:20.730Z,168.75
2018-03-26T07:50:20.683Z,168.75
2018-03-26T07:51:20.634Z,174.38
2018-03-26T07:52:20.587Z,174.38
2018-03-26T07:53:20.540Z,180.00
2018-03-26T07:54:20.492Z,180.00
2018-03-26T07:55:20.445Z,180.00
2018-03-26T07:56:20.397Z,180.00
2018-03-26T07:57:20.349Z,174.38
2018-03-26T07:58:20.302Z,174.38
2018-03-26T07:59:20.254Z,168.75
2018-03-26T08:00:20.207Z,163.13
2018-03-26T08:01:20.160Z,163.13
2018-03-26T08:02:20.112Z,157.50
2018-03-26T08:03:20.066Z,157.50
2018-03-26T08:04:20.018Z,157.50
2018-03-26T08:05:19.972Z,157.50
2018-03-26T08:06:19.924Z,157.50
2018-03-26T08:07:19.878Z,157.50
2018-03-26T08:08:19.831Z,157.50
2018-03-26T08:09:19.781Z,157.50
2018-03-26T08:10:19.734Z,157.50
2018-03-26T08:11:19.686Z,157.50
2018-03-26T08:12:19.641Z,157.50
2018-03-26T08:13:19.592Z,163.13
2018-03-26T08:14:19.547Z,163.13
2018-03-26T08:15:19.497Z,168.75
2018-03-26T08:16:19.482Z,168.75
2018-03-26T08:17:19.458Z,168.75
2018-03-26T08:18:19.356Z,174.38
2018-03-26T08:19:19.308Z,174.38
2018-03-26T08:20:19.262Z,180.00
2018-03-26T08:21:19.214Z,180.00
2018-03-26T08:22:19.173Z,180.00
2018-03-26T08:23:19.125Z,180.00
2018-03-26T08:24:19.078Z,180.00
2018-03-26T08:25:19.025Z,185.63
2018-03-26T08:26:18.979Z,191.25
2018-03-26T08:27:18.930Z,196.88
2018-03-26T08:28:18.884Z,202.50
2018-03-26T08:29:18.835Z,208.13
2018-03-26T08:30:18.793Z,213.75
2018-03-26T08:31:18.741Z,213.75
2018-03-26T08:32:18.694Z,219.38
2018-03-26T08:33:18.646Z,219.38
2018-03-26T08:34:18.599Z,219.38
2018-03-26T08:35:18.551Z,225.00
2018-03-26T08:36:18.504Z,219.38
2018-03-26T08:37:18.456Z,225.00
2018-03-26T08:38:18.410Z,225.00
2018-03-26T08:39:18.362Z,236.25
2018-03-26T08:40:18.322Z,236.25
2018-03-26T08:41:18.271Z,247.50
2018-03-26T08:42:18.257Z,264.38
2018-03-26T08:43:18.172Z,275.63
2018-03-26T08:44:18.125Z,281.25
2018-03-26T08:45:18.088Z,286.88
2018-03-26T08:46:18.030Z,298.13
2018-03-26T08:47:17.983Z,309.38
2018-03-26T08:48:17.936Z,331.88
2018-03-26T08:49:17.890Z,343.13
2018-03-26T08:50:17.912Z,360.00
2018-03-26T08:51:17.802Z,365.63
2018-03-26T08:52:17.751Z,365.63
2018-03-26T08:53:17.702Z,365.63
2018-03-26T08:54:17.656Z,365.63
2018-03-26T08:55:17.608Z,360.00
2018-03-26T08:56:17.606Z,365.63
2018-03-26T08:57:17.515Z,348.75
2018-03-26T08:58:17.469Z,343.13
2018-03-26T08:59:17.437Z,331.88
2018-03-26T09:00:17.375Z,331.88
2018-03-26T09:01:17.329Z,326.25
2018-03-26T09:02:17.284Z,326.25
2018-03-26T09:03:17.236Z,326.25
2018-03-26T09:04:17.190Z,326.25
2018-03-26T09:05:17.144Z,326.25
2018-03-26T09:06:17.098Z,326.25
2018-03-26T09:07:17.050Z,326.25
2018-03-26T09:08:17.005Z,320.63
2018-03-26T09:09:16.959Z,320.63
2018-03-26T09:10:16.918Z,331.88
2018-03-26T09:11:16.867Z,326.25
2018-03-26T09:12:16.820Z,331.88
2018-03-26T09:13:16.775Z,331.88
2018-03-26T09:14:16.731Z,331.88
2018-03-26T09:15:16.682Z,331.88
2018-03-26T09:16:16.636Z,331.88
2018-03-26T09:17:16.590Z,331.88
2018-03-26T09:18:16.545Z,331.88
2018-03-26T09:19:16.498Z,320.63
2018-03-26T09:20:16.452Z,315.00
2018-03-26T09:21:16.406Z,309.38
2018-03-26T09:22:16.361Z,303.75
2018-03-26T09:23:16.315Z,298.13
2018-03-26T09:24:16.268Z,292.50
2018-03-26T09:25:16.226Z,292.50
2018-03-26T09:26:16.177Z,292.50
2018-03-26T09:27:16.131Z,286.88
2018-03-26T09:28:16.085Z,286.88
2018-03-26T09:29:16.040Z,286.88
2018-03-26T09:30:15.993Z,286.88
2018-03-26T09:31:15.947Z,286.88
2018-03-26T09:32:15.901Z,292.50
2018-03-26T09:33:15.860Z,292.50
2018-03-26T09:34:15.810Z,292.50
2018-03-26T09:35:15.763Z,292.50
2018-03-26T09:36:15.718Z,292.50
2018-03-26T09:37:15.671Z,286.88
2018-03-26T09:38:15.626Z,286.88
2018-03-26T09:39:15.579Z,281.25
2018-03-26T09:40:15.533Z,281.25
2018-03-26T09:41:15.488Z,281.25
2018-03-26T09:42:15.442Z,281.25
2018-03-26T09:43:15.396Z,281.25
2018-03-26T09:44:15.351Z,275.63
2018-03-26T09:45:15.311Z,275.63
2018-03-26T09:46:15.258Z,270.00
2018-03-26T09:47:15.214Z,270.00
2018-03-26T09:48:15.168Z,264.38
2018-03-26T09:49:15.119Z,264.38
2018-03-26T09:50:15.073Z,264.38
2018-03-26T09:51:15.027Z,264.38
2018-03-26T09:52:14.981Z,264.38
2018-03-26T09:53:14.959Z,264.38
2018-03-26T09:54:14.889Z,264.38
2018-03-26T09:55:14.842Z,270.00
2018-03-26T09:56:14.812Z,270.00
2018-03-26T09:57:14.750Z,270.00
2018-03-26T09:58:14.704Z,270.00
2018-03-26T09:59:14.658Z,275.63
2018-03-26T10:00:14.612Z,275.63
2018-03-26T10:01:14.566Z,281.25
2018-03-26T10:02:14.520Z,281.25
2018-03-26T10:03:14.473Z,281.25
2018-03-26T10:04:14.481Z,286.88
2018-03-26T10:05:14.383Z,292.50
2018-03-26T10:06:14.341Z,298.13
2018-03-26T10:07:14.289Z,298.13
2018-03-26T10:08:14.243Z,298.13
2018-03-26T10:09:14.197Z,275.63
2018-03-26T10:10:14.151Z,275.63
2018-03-26T10:11:14.104Z,275.63
2018-03-26T10:12:14.065Z,270.00
2018-03-26T10:13:14.013Z,264.38
2018-03-26T10:14:13.967Z,258.75
2018-03-26T10:15:13.930Z,264.38
2018-03-26T10:16:13.875Z,275.63
2018-03-26T10:17:13.830Z,286.88
2018-03-26T10:18:13.784Z,292.50
2018-03-26T10:19:13.737Z,292.50
2018-03-26T10:20:13.691Z,292.50
2018-03-26T10:21:13.652Z,275.63
2018-03-26T10:22:13.599Z,264.38
2018-03-26T10:23:13.553Z,247.50
2018-03-26T10:24:13.508Z,241.88
2018-03-26T10:25:13.464Z,236.25
2018-03-26T10:26:13.416Z,219.38
2018-03-26T10:27:13.370Z,208.13
2018-03-26T10:28:13.325Z,219.38
2018-03-26T10:29:13.278Z,225.00
2018-03-26T10:30:13.233Z,230.63
2018-03-26T10:31:13.245Z,230.63
2018-03-26T10:32:13.141Z,213.75
2018-03-26T10:33:13.095Z,196.88
2018-03-26T10:34:13.049Z,185.63
2018-03-26T10:35:13.002Z,168.75
2018-03-26T10:36:12.956Z,151.88
2018-03-26T10:37:12.912Z,151.88
2018-03-26T10:38:12.866Z,146.25
2018-03-26T10:39:12.818Z,146.25
2018-03-26T10:40:12.772Z,140.63
2018-03-26T10:41:12.727Z,140.63
2018-03-26T10:42:12.681Z,140.63
2018-03-26T10:43:12.633Z,135.00
2018-03-26T10:44:12.588Z,135.00
2018-03-26T10:45:12.542Z,135.00
2018-03-26T10:46:12.496Z,129.38
2018-03-26T10:47:12.452Z,129.38
2018-03-26T10:48:12.402Z,129.38
2018-03-26T10:49:12.357Z,129.38
2018-03-26T10:50:12.311Z,129.38
2018-03-26T10:51:12.264Z,129.38
2018-03-26T10:52:12.217Z,135.00
2018-03-26T10:53:12.173Z,135.00
2018-03-26T10:54:12.126Z,135.00
2018-03-26T10:55:12.080Z,140.63
2018-03-26T10:56:12.031Z,140.63
2018-03-26T10:57:11.986Z,129.38
2018-03-26T10:58:11.939Z,123.75
2018-03-26T10:59:11.891Z,112.50
2018-03-26T11:00:11.845Z,106.88
2018-03-26T11:01:11.801Z,101.25
2018-03-26T11:02:11.754Z,101.25
2018-03-26T11:03:11.705Z,112.50
2018-03-26T11:04:11.659Z,123.75
2018-03-26T11:05:11.613Z,123.75
2018-03-26T11:06:11.572Z,118.13
2018-03-26T11:07:11.519Z,118.13
2018-03-26T11:08:11.473Z,123.75
2018-03-26T11:09:11.424Z,135.00
2018-03-26T11:10:11.379Z,135.00
2018-03-26T11:11:11.331Z,135.00
2018-03-26T11:12:11.284Z,129.38
2018-03-26T11:13:11.237Z,129.38
2018-03-26T11:14:11.190Z,135.00
2018-03-26T11:15:11.142Z,146.25
2018-03-26T11:16:11.095Z,146.25
2018-03-26T11:17:11.048Z,146.25
2018-03-26T11:18:11.052Z,151.88
2018-03-26T11:19:10.955Z,157.50
2018-03-26T11:20:10.907Z,151.88
2018-03-26T11:21:10.860Z,140.63
2018-03-26T11:22:10.813Z,140.63
2018-03-26T11:23:10.766Z,146.25
2018-03-26T11:24:10.719Z,151.88
2018-03-26T11:25:10.672Z,163.13
2018-03-26T11:26:10.626Z,163.13
2018-03-26T11:27:10.587Z,163.13
2018-03-26T11:28:10.530Z,163.13
2018-03-26T11:29:10.484Z,157.50
2018-03-26T11:30:10.438Z,146.25
2018-03-26T11:31:10.388Z,135.00
2018-03-26T11:32:10.341Z,118.13
2018-03-26T11:33:10.296Z,112.50
2018-03-26T11:34:10.251Z,112.50
2018-03-26T11:35:10.250Z,112.50
2018-03-26T11:36:10.153Z,106.88
2018-03-26T11:37:10.106Z,101.25
2018-03-26T11:38:10.059Z,90.00
2018-03-26T11:39:10.012Z,84.38
2018-03-26T11:40:09.965Z,78.75
2018-03-26T11:41:09.916Z,78.75
2018-03-26T11:42:09.869Z,78.75
2018-03-26T11:43:09.822Z,84.38
2018-03-26T11:44:09.775Z,101.25
2018-03-26T11:45:09.727Z,106.88
2018-03-26T11:46:09.705Z,106.88
2018-03-26T11:47:09.632Z,112.50
2018-03-26T11:48:09.585Z,118.13
2018-03-26T11:49:09.543Z,118.13
2018-03-26T11:50:09.490Z,118.13
2018-03-26T11:51:09.442Z,118.13
2018-03-26T11:52:09.394Z,123.75
2018-03-26T11:53:09.348Z,123.75
2018-03-26T11:54:09.302Z,123.75
2018-03-26T11:55:09.300Z,123.75
2018-03-26T11:56:09.205Z,118.13
2018-03-26T11:57:09.158Z,118.13
2018-03-26T11:58:09.109Z,112.50
2018-03-26T11:59:09.065Z,112.50
2018-03-26T12:00:09.016Z,112.50
2018-03-26T12:01:08.966Z,106.88
2018-03-26T12:02:08.982Z,106.88
2018-03-26T12:03:08.872Z,106.88
2018-03-26T12:04:08.824Z,106.88
2018-03-26T12:05:08.777Z,106.88
2018-03-26T12:06:08.730Z,106.88
2018-03-26T12:07:08.680Z,106.88
2018-03-26T12:08:08.634Z,101.25
2018-03-26T12:09:08.586Z,95.63
2018-03-26T12:10:08.539Z,90.00
2018-03-26T12:11:08.495Z,95.63
2018-03-26T12:12:08.443Z,95.63
2018-03-26T12:13:08.454Z,90.00
2018-03-26T12:14:08.349Z,84.38
2018-03-26T12:15:08.300Z,84.38
2018-03-26T12:16:08.264Z,78.75
2018-03-26T12:17:08.205Z,73.13
2018-03-26T12:18:08.160Z,67.50
2018-03-26T12:19:08.110Z,61.88
2018-03-26T12:20:08.063Z,78.75
2018-03-26T12:21:08.015Z,101.25
2018-03-26T12:22:07.968Z,112.50
2018-03-26T12:23:07.921Z,140.63
2018-03-26T12:24:07.923Z,140.63
2018-03-26T12:25:07.824Z,112.50
2018-03-26T12:26:07.828Z,106.88
2018-03-26T12:27:07.730Z,101.25
2018-03-26T12:28:07.683Z,101.25
2018-03-26T12:29:07.635Z,95.63
2018-03-26T12:30:07.589Z,90.00
2018-03-26T12:31:07.539Z,90.00
2018-03-26T12:32:07.494Z,101.25
2018-03-26T12:33:07.455Z,106.88
2018-03-26T12:34:07.397Z,95.63
2018-03-26T12:35:07.350Z,95.63
2018-03-26T12:36:07.302Z,90.00
2018-03-26T12:37:07.254Z,78.75
2018-03-26T12:38:07.207Z,73.13
2018-03-26T12:39:07.159Z,73.13
2018-03-26T12:40:07.111Z,73.13
2018-03-26T12:41:07.064Z,78.75
2018-03-26T12:42:07.017Z,84.38
2018-03-26T12:43:06.968Z,90.00
2018-03-26T12:44:06.923Z,90.00
2018-03-26T12:45:06.873Z,95.63
2018-03-26T12:46:06.835Z,101.25
2018-03-26T12:47:06.778Z,101.25
2018-03-26T12:48:06.733Z,106.88
2018-03-26T12:49:06.683Z,106.88
2018-03-26T12:50:06.636Z,118.13
2018-03-26T12:51:06.631Z,112.50
2018-03-26T12:52:06.540Z,118.13